Terminal Aerodrome Forecast
Issued by NWS

Home | Current Version | Previous Version | Text Only | Print | Product List | Glossary On
Versions: 1 2 3 4 5 6 7 8 9 10 11 12 13 14 15 16 17 18 19 20
961
FTUS41 KCAR 280537
TAFBHB
TAF
KBHB 280537Z 2806/2906 00000KT 1 1/2SM BR BKN003
     FM280800 VRB03KT 1/2SM FG OVC002
     FM281100 19005KT 1 1/2SM BR BKN004
     FM281300 27004KT P6SM BKN015
     FM281500 34006KT P6SM BKN100
     FM290400 06007KT P6SM BKN003=

USA.gov is the U.S. government's official web portal to all federal, state and local government web resources and services.